Canyon, TX (79016)

3:37 PM CDT on March 23, 2017 (GMT -0500)
Canyon 9th ave | | Change Station

Elev 3520 ft 34.97 °N, 101.92 °W | Updated 2 seconds ago

Clear
Clear
79.7 °F
Feels Like 80 °F
N
11.4
Wind Variable Wind from SW
Gusts 15.0 mph

Today
High -- | Low -- °F
--% Chance of Precip.
Yesterday
High -- | Low -- °F
Precip. -- in
Pressure 29.70 in
Visibility 7.0 miles
Clouds Clear
Heat Index 80 °F
Dew Point 55 °F
Humidity 42%
Rainfall 0.00 in
Snow Depth Not available.
7:46 AM 8:02 PM
Waning Crescent, 21% visible
METAR KHRX 232015Z AUTO 18029G37KT 7SM CLR 28/09 A2970 RMK AO2 T02800093
Pressure 29.70 in
Visibility 7.0 miles
Clouds Clear
Heat Index 80 °F
Dew Point 55 °F
Humidity 42%
Rainfall 0.00 in
Snow Depth Not available.
7:46 AM 8:02 PM
Waning Crescent, 21% visible
METAR KHRX 232015Z AUTO 18029G37KT 7SM CLR 28/09 A2970 RMK AO2 T02800093

Get Your Daily Forecast Email!

Thanks for signing up!

Be on the lookout for a verification email in your inbox.

You'll start receiving severe weather alerts in your inbox..

×

10-Day Weather Forecast

Almanac

Astronomy

Mar. 23, 2017 Rise Set
Actual Time
Civil Twilight
Nautical Twilight
Astronomical Twilight
Moon
Length of Visible Light
Length of Day
Tomorrow will be .
, % of the Moon is Illuminated

Today's Extremes

State Highs State Lows

Community

WunderPhotos

Upload Photos

1,962,540 photos uploaded!

WunderBlog® & News

Nearby

Air Quality

  Air Quality AQ Index Pollutant
Not available.

Snow Depth

Station Depth Elevation

Earthquake Activity

City Distance Mag. Time & Date
Minimum magnitude displayed is 2.5.

Earthquake Activity

City Distance Mag. Time & Date
Minimum magnitude displayed is 2.5.

Coastal Water Temperatures

Place Temperature

Stations

Nearby Weather Stations

Station Location Temp. Windchill Dew Point Humidity Wind Precip. Elev Updated Type
                   

Watches & Warnings

Wind Advisory, High Wind Watch
Issued: 2:52 PM CDT Mar. 23, 2017 – National Weather Service

... Wind Advisory remains in effect until 8 PM CDT this evening...
... High wind watch remains in effect from Friday morning through
Friday evening...

* timing... from 1 PM this afternoon to 8 PM CDT this evening.

* Winds... southwest 35 to 45 mph with gusts up to 60 mph.

* Impacts... sudden wind gusts can cause drivers to lose
control... especially in lightweight or high profile vehicles.
Strong winds can cause blowing dust... reducing visibilities...
and cause flying debris. Light outdoor objects could be moved
by the strong winds.

Precautionary/preparedness actions...

A Wind Advisory means that winds of 35 mph are expected. Winds
this strong can make driving difficult... especially for high
profile vehicles. Use extra caution.

A high wind watch means there is the potential for a hazardous
high wind event. Sustained winds of at least 40 mph... or gusts of
58 mph or stronger may occur. Continue to monitor the latest
forecasts.